sensor_id;sensor_type;location;lat;lon;timestamp;temperature;humidity
16881;DHT22;8557;52.068;5.198;2023-01-09T00:00:04;7.70;99.90
16881;DHT22;8557;52.068;5.198;2023-01-09T00:02:31;7.70;99.90
16881;DHT22;8557;52.068;5.198;2023-01-09T00:04:59;7.70;99.90
16881;DHT22;8557;52.068;5.198;2023-01-09T00:07:26;7.60;99.90
16881;DHT22;8557;52.068;5.198;2023-01-09T00:09:52;7.60;99.90
16881;DHT22;8557;52.068;5.198;2023-01-09T00:12:19;7.60;99.90
16881;DHT22;8557;52.068;5.198;2023-01-09T00:14:46;7.50;99.90
16881;DHT22;8557;52.068;5.198;2023-01-09T00:17:13;7.50;99.90
16881;DHT22;8557;52.068;5.198;2023-01-09T00:19:39;7.50;99.90
16881;DHT22;8557;52.068;5.198;2023-01-09T00:22:08;7.50;99.90
16881;DHT22;8557;52.068;5.198;2023-01-09T00:24:35;7.40;99.90
16881;DHT22;8557;52.068;5.198;2023-01-09T00:27:02;7.60;99.90
16881;DHT22;8557;52.068;5.198;2023-01-09T00:29:28;7.40;99.90
16881;DHT22;8557;52.068;5.198;2023-01-09T00:31:55;7.30;99.90
16881;DHT22;8557;52.068;5.198;2023-01-09T00:34:22;7.40;99.90
16881;DHT22;8557;52.068;5.198;2023-01-09T00:36:49;7.30;99.90
16881;DHT22;8557;52.068;5.198;2023-01-09T00:39:21;7.30;99.90
16881;DHT22;8557;52.068;5.198;2023-01-09T00:41:50;7.20;99.90
16881;DHT22;8557;52.068;5.198;2023-01-09T00:44:20;7.30;99.90
16881;DHT22;8557;52.068;5.198;2023-01-09T00:46:50;7.10;99.90
16881;DHT22;8557;52.068;5.198;2023-01-09T00:49:18;7.10;99.90
16881;DHT22;8557;52.068;5.198;2023-01-09T00:51:45;7.20;99.90
16881;DHT22;8557;52.068;5.198;2023-01-09T00:54:15;7.10;99.90
16881;DHT22;8557;52.068;5.198;2023-01-09T00:56:44;7.10;99.90
16881;DHT22;8557;52.068;5.198;2023-01-09T00:59:11;7.10;99.90
16881;DHT22;8557;52.068;5.198;2023-01-09T01:01:38;7.20;99.90
16881;DHT22;8557;52.068;5.198;2023-01-09T01:04:04;7.00;99.90
16881;DHT22;8557;52.068;5.198;2023-01-09T01:06:45;7.10;99.90
16881;DHT22;8557;52.068;5.198;2023-01-09T01:09:29;7.10;99.90
16881;DHT22;8557;52.068;5.198;2023-01-09T01:11:57;7.20;99.90
16881;DHT22;8557;52.068;5.198;2023-01-09T01:14:26;7.20;99.90
16881;DHT22;8557;52.068;5.198;2023-01-09T01:16:52;7.10;99.90
16881;DHT22;8557;52.068;5.198;2023-01-09T01:19:19;7.10;99.90
16881;DHT22;8557;52.068;5.198;2023-01-09T01:21:46;7.10;99.90
16881;DHT22;8557;52.068;5.198;2023-01-09T01:24:13;7.10;99.90
16881;DHT22;8557;52.068;5.198;2023-01-09T01:26:42;7.00;99.90
16881;DHT22;8557;52.068;5.198;2023-01-09T01:29:10;6.90;99.90
16881;DHT22;8557;52.068;5.198;2023-01-09T01:31:37;6.90;99.90
16881;DHT22;8557;52.068;5.198;2023-01-09T01:34:04;6.90;99.90
16881;DHT22;8557;52.068;5.198;2023-01-09T01:36:32;6.80;99.90
16881;DHT22;8557;52.068;5.198;2023-01-09T01:38:59;6.80;99.90
16881;DHT22;8557;52.068;5.198;2023-01-09T01:41:26;6.80;99.90
16881;DHT22;8557;52.068;5.198;2023-01-09T01:43:56;6.80;99.90
16881;DHT22;8557;52.068;5.198;2023-01-09T01:46:25;6.70;99.90
16881;DHT22;8557;52.068;5.198;2023-01-09T01:48:54;6.80;99.90
16881;DHT22;8557;52.068;5.198;2023-01-09T01:51:24;6.70;99.90
16881;DHT22;8557;52.068;5.198;2023-01-09T01:53:53;6.80;99.90
16881;DHT22;8557;52.068;5.198;2023-01-09T01:56:26;6.70;99.90
16881;DHT22;8557;52.068;5.198;2023-01-09T01:58:56;6.60;99.90
16881;DHT22;8557;52.068;5.198;2023-01-09T02:01:25;6.70;99.90
16881;DHT22;8557;52.068;5.198;2023-01-09T02:03:54;6.70;99.90
16881;DHT22;8557;52.068;5.198;2023-01-09T02:06:22;6.80;99.90
16881;DHT22;8557;52.068;5.198;2023-01-09T02:08:50;6.70;99.90
16881;DHT22;8557;52.068;5.198;2023-01-09T02:11:18;6.60;99.90
16881;DHT22;8557;52.068;5.198;2023-01-09T02:13:46;6.60;99.90
16881;DHT22;8557;52.068;5.198;2023-01-09T02:16:22;6.70;99.90
16881;DHT22;8557;52.068;5.198;2023-01-09T02:18:59;6.70;99.90
16881;DHT22;8557;52.068;5.198;2023-01-09T02:21:40;6.70;99.90
16881;DHT22;8557;52.068;5.198;2023-01-09T02:24:40;6.60;99.90
16881;DHT22;8557;52.068;5.198;2023-01-09T02:27:32;6.50;99.90
16881;DHT22;8557;52.068;5.198;2023-01-09T02:30:26;6.40;99.90
16881;DHT22;8557;52.068;5.198;2023-01-09T02:33:18;6.40;99.90
16881;DHT22;8557;52.068;5.198;2023-01-09T02:35:56;6.50;99.90
16881;DHT22;8557;52.068;5.198;2023-01-09T02:38:30;6.50;99.90
16881;DHT22;8557;52.068;5.198;2023-01-09T02:41:04;6.40;99.90
16881;DHT22;8557;52.068;5.198;2023-01-09T02:43:33;6.40;99.90
16881;DHT22;8557;52.068;5.198;2023-01-09T02:46:01;6.30;99.90
16881;DHT22;8557;52.068;5.198;2023-01-09T02:48:28;6.40;99.90
16881;DHT22;8557;52.068;5.198;2023-01-09T02:51:04;6.40;99.90
16881;DHT22;8557;52.068;5.198;2023-01-09T02:56:46;6.40;99.90
16881;DHT22;8557;52.068;5.198;2023-01-09T02:59:24;6.30;99.90
16881;DHT22;8557;52.068;5.198;2023-01-09T03:02:07;6.30;99.90
16881;DHT22;8557;52.068;5.198;2023-01-09T03:04:44;6.20;99.90
16881;DHT22;8557;52.068;5.198;2023-01-09T03:07:18;6.30;99.90
16881;DHT22;8557;52.068;5.198;2023-01-09T03:09:49;6.20;99.90
16881;DHT22;8557;52.068;5.198;2023-01-09T03:12:20;6.20;99.90
16881;DHT22;8557;52.068;5.198;2023-01-09T03:14:50;6.10;99.90
16881;DHT22;8557;52.068;5.198;2023-01-09T03:17:25;6.10;99.90
16881;DHT22;8557;52.068;5.198;2023-01-09T03:19:53;6.10;99.90
16881;DHT22;8557;52.068;5.198;2023-01-09T03:22:21;6.10;99.90
16881;DHT22;8557;52.068;5.198;2023-01-09T03:24:48;6.00;99.90
16881;DHT22;8557;52.068;5.198;2023-01-09T03:27:15;6.10;99.90
16881;DHT22;8557;52.068;5.198;2023-01-09T03:29:42;6.10;99.90
16881;DHT22;8557;52.068;5.198;2023-01-09T03:32:09;5.90;99.90
16881;DHT22;8557;52.068;5.198;2023-01-09T03:34:37;5.90;99.90
16881;DHT22;8557;52.068;5.198;2023-01-09T03:37:04;5.80;99.90
16881;DHT22;8557;52.068;5.198;2023-01-09T03:39:31;5.80;99.90
16881;DHT22;8557;52.068;5.198;2023-01-09T03:41:58;5.90;99.90
16881;DHT22;8557;52.068;5.198;2023-01-09T03:44:25;5.80;99.90
16881;DHT22;8557;52.068;5.198;2023-01-09T03:46:51;5.90;99.90
16881;DHT22;8557;52.068;5.198;2023-01-09T03:49:18;5.80;99.90
16881;DHT22;8557;52.068;5.198;2023-01-09T03:51:47;5.80;99.90
16881;DHT22;8557;52.068;5.198;2023-01-09T03:54:14;5.80;99.90
16881;DHT22;8557;52.068;5.198;2023-01-09T03:56:41;5.80;99.90
16881;DHT22;8557;52.068;5.198;2023-01-09T03:59:07;5.70;99.90
16881;DHT22;8557;52.068;5.198;2023-01-09T04:01:34;5.70;99.90
16881;DHT22;8557;52.068;5.198;2023-01-09T04:04:01;5.70;99.90
16881;DHT22;8557;52.068;5.198;2023-01-09T04:06:28;5.70;99.90
16881;DHT22;8557;52.068;5.198;2023-01-09T04:08:56;5.70;99.90
16881;DHT22;8557;52.068;5.198;2023-01-09T04:11:23;5.70;99.90
16881;DHT22;8557;52.068;5.198;2023-01-09T04:13:50;5.70;99.90
16881;DHT22;8557;52.068;5.198;2023-01-09T04:16:16;5.70;99.90
16881;DHT22;8557;52.068;5.198;2023-01-09T04:18:43;5.70;99.90
16881;DHT22;8557;52.068;5.198;2023-01-09T04:21:10;5.60;99.90
16881;DHT22;8557;52.068;5.198;2023-01-09T04:23:37;5.60;99.90
16881;DHT22;8557;52.068;5.198;2023-01-09T04:26:05;5.70;99.90
16881;DHT22;8557;52.068;5.198;2023-01-09T04:28:32;5.80;99.90
16881;DHT22;8557;52.068;5.198;2023-01-09T04:30:59;5.80;99.90
16881;DHT22;8557;52.068;5.198;2023-01-09T04:33:27;5.90;99.90
16881;DHT22;8557;52.068;5.198;2023-01-09T04:35:53;5.90;99.90
16881;DHT22;8557;52.068;5.198;2023-01-09T04:38:20;6.00;99.90
16881;DHT22;8557;52.068;5.198;2023-01-09T04:40:47;6.00;99.90
16881;DHT22;8557;52.068;5.198;2023-01-09T04:43:16;6.10;99.90
16881;DHT22;8557;52.068;5.198;2023-01-09T04:45:42;6.10;99.90
16881;DHT22;8557;52.068;5.198;2023-01-09T04:48:09;6.20;99.90
16881;DHT22;8557;52.068;5.198;2023-01-09T04:50:36;6.20;99.90
16881;DHT22;8557;52.068;5.198;2023-01-09T04:53:03;6.20;99.90
16881;DHT22;8557;52.068;5.198;2023-01-09T04:55:31;6.20;99.90
16881;DHT22;8557;52.068;5.198;2023-01-09T04:57:58;6.30;99.90
16881;DHT22;8557;52.068;5.198;2023-01-09T05:00:26;6.30;99.90
16881;DHT22;8557;52.068;5.198;2023-01-09T05:02:53;6.40;99.90
16881;DHT22;8557;52.068;5.198;2023-01-09T05:07:48;6.50;99.90
16881;DHT22;8557;52.068;5.198;2023-01-09T05:10:15;6.50;99.90
16881;DHT22;8557;52.068;5.198;2023-01-09T05:12:42;6.40;99.90
16881;DHT22;8557;52.068;5.198;2023-01-09T05:15:10;6.50;99.90
16881;DHT22;8557;52.068;5.198;2023-01-09T05:17:38;6.60;99.90
16881;DHT22;8557;52.068;5.198;2023-01-09T05:25:00;6.70;99.90
16881;DHT22;8557;52.068;5.198;2023-01-09T05:27:27;6.70;99.90
16881;DHT22;8557;52.068;5.198;2023-01-09T05:29:54;6.60;99.90
16881;DHT22;8557;52.068;5.198;2023-01-09T05:32:21;6.50;99.90
16881;DHT22;8557;52.068;5.198;2023-01-09T05:34:49;6.60;99.90
16881;DHT22;8557;52.068;5.198;2023-01-09T05:37:16;6.60;99.90
16881;DHT22;8557;52.068;5.198;2023-01-09T05:39:43;6.70;99.90
16881;DHT22;8557;52.068;5.198;2023-01-09T05:42:10;6.70;99.90
16881;DHT22;8557;52.068;5.198;2023-01-09T05:44:37;6.70;99.90
16881;DHT22;8557;52.068;5.198;2023-01-09T05:47:03;6.80;99.90
16881;DHT22;8557;52.068;5.198;2023-01-09T05:49:30;6.80;99.90
16881;DHT22;8557;52.068;5.198;2023-01-09T05:51:58;6.80;99.90
16881;DHT22;8557;52.068;5.198;2023-01-09T05:54:25;6.90;99.90
16881;DHT22;8557;52.068;5.198;2023-01-09T05:56:52;6.80;99.90
16881;DHT22;8557;52.068;5.198;2023-01-09T05:59:19;6.90;99.90
16881;DHT22;8557;52.068;5.198;2023-01-09T06:01:46;6.90;99.90
16881;DHT22;8557;52.068;5.198;2023-01-09T06:04:12;7.10;99.90
16881;DHT22;8557;52.068;5.198;2023-01-09T06:06:39;7.00;99.90
16881;DHT22;8557;52.068;5.198;2023-01-09T06:09:07;7.10;99.90
16881;DHT22;8557;52.068;5.198;2023-01-09T06:11:34;7.10;99.90
16881;DHT22;8557;52.068;5.198;2023-01-09T06:14:03;7.00;99.90
16881;DHT22;8557;52.068;5.198;2023-01-09T06:16:29;7.10;99.90
16881;DHT22;8557;52.068;5.198;2023-01-09T06:18:56;7.10;99.90
16881;DHT22;8557;52.068;5.198;2023-01-09T06:21:23;7.10;99.90
16881;DHT22;8557;52.068;5.198;2023-01-09T06:23:50;7.10;99.90
16881;DHT22;8557;52.068;5.198;2023-01-09T06:26:18;7.20;99.90
16881;DHT22;8557;52.068;5.198;2023-01-09T06:28:45;7.20;99.90
16881;DHT22;8557;52.068;5.198;2023-01-09T06:31:12;7.20;99.90
16881;DHT22;8557;52.068;5.198;2023-01-09T06:33:38;7.20;99.90
16881;DHT22;8557;52.068;5.198;2023-01-09T06:36:06;7.20;99.90
16881;DHT22;8557;52.068;5.198;2023-01-09T06:38:33;7.20;99.90
16881;DHT22;8557;52.068;5.198;2023-01-09T06:41:00;7.20;99.90
16881;DHT22;8557;52.068;5.198;2023-01-09T06:43:28;7.20;99.90
16881;DHT22;8557;52.068;5.198;2023-01-09T06:45:55;7.20;99.90
16881;DHT22;8557;52.068;5.198;2023-01-09T06:48:22;7.30;99.90
16881;DHT22;8557;52.068;5.198;2023-01-09T06:50:50;7.30;99.90
16881;DHT22;8557;52.068;5.198;2023-01-09T06:53:17;7.30;99.90
16881;DHT22;8557;52.068;5.198;2023-01-09T06:55:44;7.30;99.90
16881;DHT22;8557;52.068;5.198;2023-01-09T06:58:12;7.30;99.90
16881;DHT22;8557;52.068;5.198;2023-01-09T07:00:40;7.30;99.90
16881;DHT22;8557;52.068;5.198;2023-01-09T07:03:07;7.40;99.90
16881;DHT22;8557;52.068;5.198;2023-01-09T07:05:39;7.50;99.90
16881;DHT22;8557;52.068;5.198;2023-01-09T07:08:06;7.40;99.90
16881;DHT22;8557;52.068;5.198;2023-01-09T07:10:36;7.40;99.90
16881;DHT22;8557;52.068;5.198;2023-01-09T07:13:03;7.40;99.90
16881;DHT22;8557;52.068;5.198;2023-01-09T07:15:30;7.40;99.90
16881;DHT22;8557;52.068;5.198;2023-01-09T07:17:58;7.40;99.90
16881;DHT22;8557;52.068;5.198;2023-01-09T07:20:25;7.40;99.90
16881;DHT22;8557;52.068;5.198;2023-01-09T07:22:52;7.40;99.90
16881;DHT22;8557;52.068;5.198;2023-01-09T07:25:19;7.40;99.90
16881;DHT22;8557;52.068;5.198;2023-01-09T07:27:46;7.40;99.90
16881;DHT22;8557;52.068;5.198;2023-01-09T07:30:13;7.40;99.90
16881;DHT22;8557;52.068;5.198;2023-01-09T07:32:40;7.40;99.90
16881;DHT22;8557;52.068;5.198;2023-01-09T07:35:09;7.50;99.90
16881;DHT22;8557;52.068;5.198;2023-01-09T07:37:36;7.40;99.90
16881;DHT22;8557;52.068;5.198;2023-01-09T07:40:04;7.50;99.90
16881;DHT22;8557;52.068;5.198;2023-01-09T07:42:31;7.50;99.90
16881;DHT22;8557;52.068;5.198;2023-01-09T07:44:58;7.50;99.90
16881;DHT22;8557;52.068;5.198;2023-01-09T07:47:24;7.40;99.90
16881;DHT22;8557;52.068;5.198;2023-01-09T07:49:51;7.40;99.90
16881;DHT22;8557;52.068;5.198;2023-01-09T07:52:19;7.40;99.90
16881;DHT22;8557;52.068;5.198;2023-01-09T07:54:46;7.40;99.90
16881;DHT22;8557;52.068;5.198;2023-01-09T07:57:13;7.40;99.90
16881;DHT22;8557;52.068;5.198;2023-01-09T07:59:40;7.30;99.90
16881;DHT22;8557;52.068;5.198;2023-01-09T08:02:08;7.30;99.90
16881;DHT22;8557;52.068;5.198;2023-01-09T08:04:34;7.30;99.90
16881;DHT22;8557;52.068;5.198;2023-01-09T08:07:01;7.30;99.90
16881;DHT22;8557;52.068;5.198;2023-01-09T08:09:30;7.40;99.90
16881;DHT22;8557;52.068;5.198;2023-01-09T08:11:57;7.40;99.90
16881;DHT22;8557;52.068;5.198;2023-01-09T08:14:23;7.30;99.90
16881;DHT22;8557;52.068;5.198;2023-01-09T08:16:50;7.30;99.90
16881;DHT22;8557;52.068;5.198;2023-01-09T08:19:17;7.30;99.90
16881;DHT22;8557;52.068;5.198;2023-01-09T08:21:44;7.30;99.90
16881;DHT22;8557;52.068;5.198;2023-01-09T08:24:11;7.40;99.90
16881;DHT22;8557;52.068;5.198;2023-01-09T08:26:39;7.30;99.90
16881;DHT22;8557;52.068;5.198;2023-01-09T08:29:06;7.30;99.90
16881;DHT22;8557;52.068;5.198;2023-01-09T08:31:33;7.40;99.90
16881;DHT22;8557;52.068;5.198;2023-01-09T08:34:00;7.40;99.90
16881;DHT22;8557;52.068;5.198;2023-01-09T08:36:26;7.50;99.90
16881;DHT22;8557;52.068;5.198;2023-01-09T08:38:53;7.50;99.90
16881;DHT22;8557;52.068;5.198;2023-01-09T08:41:20;7.40;99.90
16881;DHT22;8557;52.068;5.198;2023-01-09T08:44:05;7.50;99.90
16881;DHT22;8557;52.068;5.198;2023-01-09T08:46:49;7.60;99.90
16881;DHT22;8557;52.068;5.198;2023-01-09T08:49:31;7.60;99.90
16881;DHT22;8557;52.068;5.198;2023-01-09T08:51:58;7.60;99.90
16881;DHT22;8557;52.068;5.198;2023-01-09T08:54:24;7.70;99.90
16881;DHT22;8557;52.068;5.198;2023-01-09T08:56:51;7.70;99.90
16881;DHT22;8557;52.068;5.198;2023-01-09T08:59:19;7.80;99.90
16881;DHT22;8557;52.068;5.198;2023-01-09T09:01:46;7.80;99.90
16881;DHT22;8557;52.068;5.198;2023-01-09T09:04:13;7.70;99.90
16881;DHT22;8557;52.068;5.198;2023-01-09T09:06:40;7.60;99.90
16881;DHT22;8557;52.068;5.198;2023-01-09T09:09:07;7.60;99.90
16881;DHT22;8557;52.068;5.198;2023-01-09T09:11:34;7.70;99.90
16881;DHT22;8557;52.068;5.198;2023-01-09T09:14:01;7.70;99.90
16881;DHT22;8557;52.068;5.198;2023-01-09T09:16:51;7.70;99.90
16881;DHT22;8557;52.068;5.198;2023-01-09T09:19:18;7.70;99.90
16881;DHT22;8557;52.068;5.198;2023-01-09T09:21:44;7.80;99.90
16881;DHT22;8557;52.068;5.198;2023-01-09T09:24:11;7.80;99.90
16881;DHT22;8557;52.068;5.198;2023-01-09T09:26:38;7.70;99.90
16881;DHT22;8557;52.068;5.198;2023-01-09T09:29:05;7.70;99.90
16881;DHT22;8557;52.068;5.198;2023-01-09T09:31:31;7.70;99.90
16881;DHT22;8557;52.068;5.198;2023-01-09T09:34:00;7.70;99.90
16881;DHT22;8557;52.068;5.198;2023-01-09T09:36:27;7.80;99.90
16881;DHT22;8557;52.068;5.198;2023-01-09T09:38:54;7.90;99.90
16881;DHT22;8557;52.068;5.198;2023-01-09T09:41:31;8.00;99.90
16881;DHT22;8557;52.068;5.198;2023-01-09T09:44:38;8.00;99.90
16881;DHT22;8557;52.068;5.198;2023-01-09T09:47:24;8.10;99.90
16881;DHT22;8557;52.068;5.198;2023-01-09T09:50:03;8.20;99.90
16881;DHT22;8557;52.068;5.198;2023-01-09T09:52:37;8.20;99.90
16881;DHT22;8557;52.068;5.198;2023-01-09T09:55:14;8.20;99.90
16881;DHT22;8557;52.068;5.198;2023-01-09T09:57:43;8.30;99.90
16881;DHT22;8557;52.068;5.198;2023-01-09T10:00:15;8.40;99.90
16881;DHT22;8557;52.068;5.198;2023-01-09T10:02:45;8.40;99.90
16881;DHT22;8557;52.068;5.198;2023-01-09T10:05:19;8.40;99.90
16881;DHT22;8557;52.068;5.198;2023-01-09T10:07:48;8.40;99.90
16881;DHT22;8557;52.068;5.198;2023-01-09T10:10:20;8.40;99.90
16881;DHT22;8557;52.068;5.198;2023-01-09T10:12:53;8.40;99.90
16881;DHT22;8557;52.068;5.198;2023-01-09T10:15:32;8.40;99.90
16881;DHT22;8557;52.068;5.198;2023-01-09T10:18:11;8.40;99.90
16881;DHT22;8557;52.068;5.198;2023-01-09T10:20:57;8.50;99.90
16881;DHT22;8557;52.068;5.198;2023-01-09T10:23:54;8.50;99.90
16881;DHT22;8557;52.068;5.198;2023-01-09T10:26:27;8.50;99.90
16881;DHT22;8557;52.068;5.198;2023-01-09T10:31:58;8.60;99.90
16881;DHT22;8557;52.068;5.198;2023-01-09T10:34:37;8.70;99.90
16881;DHT22;8557;52.068;5.198;2023-01-09T10:37:11;8.70;99.90
16881;DHT22;8557;52.068;5.198;2023-01-09T10:39:43;8.60;99.90
16881;DHT22;8557;52.068;5.198;2023-01-09T10:42:17;8.50;99.90
16881;DHT22;8557;52.068;5.198;2023-01-09T10:44:50;8.30;99.90
16881;DHT22;8557;52.068;5.198;2023-01-09T10:47:23;8.20;99.90
16881;DHT22;8557;52.068;5.198;2023-01-09T10:49:51;8.10;99.90
16881;DHT22;8557;52.068;5.198;2023-01-09T10:52:25;8.10;99.90
16881;DHT22;8557;52.068;5.198;2023-01-09T10:54:55;8.20;99.90
16881;DHT22;8557;52.068;5.198;2023-01-09T10:57:39;8.30;99.90
16881;DHT22;8557;52.068;5.198;2023-01-09T11:00:14;8.30;99.90
16881;DHT22;8557;52.068;5.198;2023-01-09T11:02:41;8.40;99.90
16881;DHT22;8557;52.068;5.198;2023-01-09T11:05:11;8.50;99.90
16881;DHT22;8557;52.068;5.198;2023-01-09T11:07:43;8.60;99.90
16881;DHT22;8557;52.068;5.198;2023-01-09T11:10:12;8.90;99.90
16881;DHT22;8557;52.068;5.198;2023-01-09T11:12:40;8.90;99.90
16881;DHT22;8557;52.068;5.198;2023-01-09T11:15:26;9.00;99.90
16881;DHT22;8557;52.068;5.198;2023-01-09T11:18:16;9.10;99.90
16881;DHT22;8557;52.068;5.198;2023-01-09T11:20:43;9.00;99.90
16881;DHT22;8557;52.068;5.198;2023-01-09T11:23:30;9.00;99.90
16881;DHT22;8557;52.068;5.198;2023-01-09T11:25:59;8.90;99.90
16881;DHT22;8557;52.068;5.198;2023-01-09T11:28:27;9.00;99.90
16881;DHT22;8557;52.068;5.198;2023-01-09T11:30:56;9.00;99.90
16881;DHT22;8557;52.068;5.198;2023-01-09T11:33:27;9.00;99.90
16881;DHT22;8557;52.068;5.198;2023-01-09T11:35:57;9.10;99.90
16881;DHT22;8557;52.068;5.198;2023-01-09T11:38:26;9.20;99.90
16881;DHT22;8557;52.068;5.198;2023-01-09T11:40:55;9.30;99.90
16881;DHT22;8557;52.068;5.198;2023-01-09T11:43:32;9.30;99.90
16881;DHT22;8557;52.068;5.198;2023-01-09T11:46:03;9.30;99.90
16881;DHT22;8557;52.068;5.198;2023-01-09T11:48:36;9.10;99.90
16881;DHT22;8557;52.068;5.198;2023-01-09T11:51:05;9.00;99.90
16881;DHT22;8557;52.068;5.198;2023-01-09T11:53:53;9.00;99.90
16881;DHT22;8557;52.068;5.198;2023-01-09T11:56:21;8.90;99.90
16881;DHT22;8557;52.068;5.198;2023-01-09T11:58:48;8.90;99.90
16881;DHT22;8557;52.068;5.198;2023-01-09T12:01:36;8.90;99.90
16881;DHT22;8557;52.068;5.198;2023-01-09T12:04:17;9.00;99.90
16881;DHT22;8557;52.068;5.198;2023-01-09T12:06:55;9.10;99.90
16881;DHT22;8557;52.068;5.198;2023-01-09T12:09:32;9.10;99.90
16881;DHT22;8557;52.068;5.198;2023-01-09T12:12:03;9.10;99.90
16881;DHT22;8557;52.068;5.198;2023-01-09T12:14:44;8.90;99.90
16881;DHT22;8557;52.068;5.198;2023-01-09T12:17:37;8.80;99.90
16881;DHT22;8557;52.068;5.198;2023-01-09T12:20:21;8.90;99.90
16881;DHT22;8557;52.068;5.198;2023-01-09T12:22:58;9.10;99.90
16881;DHT22;8557;52.068;5.198;2023-01-09T12:25:40;9.30;99.90
16881;DHT22;8557;52.068;5.198;2023-01-09T12:31:23;9.80;99.90
16881;DHT22;8557;52.068;5.198;2023-01-09T12:33:58;9.90;99.90
16881;DHT22;8557;52.068;5.198;2023-01-09T12:36:31;9.90;99.90
16881;DHT22;8557;52.068;5.198;2023-01-09T12:39:10;10.00;99.90
16881;DHT22;8557;52.068;5.198;2023-01-09T12:42:03;10.10;99.90
16881;DHT22;8557;52.068;5.198;2023-01-09T12:44:48;10.10;99.90
16881;DHT22;8557;52.068;5.198;2023-01-09T12:47:40;10.00;99.90
16881;DHT22;8557;52.068;5.198;2023-01-09T12:50:22;9.90;99.90
16881;DHT22;8557;52.068;5.198;2023-01-09T12:53:04;9.60;99.90
16881;DHT22;8557;52.068;5.198;2023-01-09T12:55:37;9.40;99.90
16881;DHT22;8557;52.068;5.198;2023-01-09T12:58:12;9.30;99.90
16881;DHT22;8557;52.068;5.198;2023-01-09T13:00:44;9.20;99.90
16881;DHT22;8557;52.068;5.198;2023-01-09T13:03:19;9.10;99.90
16881;DHT22;8557;52.068;5.198;2023-01-09T13:05:49;9.10;99.90
16881;DHT22;8557;52.068;5.198;2023-01-09T13:08:21;9.10;99.90
16881;DHT22;8557;52.068;5.198;2023-01-09T13:10:52;9.20;99.90
16881;DHT22;8557;52.068;5.198;2023-01-09T13:13:25;9.30;99.90
16881;DHT22;8557;52.068;5.198;2023-01-09T13:15:57;9.30;99.90
16881;DHT22;8557;52.068;5.198;2023-01-09T13:18:30;9.40;99.90
16881;DHT22;8557;52.068;5.198;2023-01-09T13:20:59;9.70;99.90
16881;DHT22;8557;52.068;5.198;2023-01-09T13:23:32;9.80;99.90
16881;DHT22;8557;52.068;5.198;2023-01-09T13:26:02;9.80;99.90
16881;DHT22;8557;52.068;5.198;2023-01-09T13:28:34;10.10;99.90
16881;DHT22;8557;52.068;5.198;2023-01-09T13:31:30;10.00;99.90
16881;DHT22;8557;52.068;5.198;2023-01-09T13:34:01;10.10;99.90
16881;DHT22;8557;52.068;5.198;2023-01-09T13:36:31;10.20;99.90
16881;DHT22;8557;52.068;5.198;2023-01-09T13:38:59;10.50;99.90
16881;DHT22;8557;52.068;5.198;2023-01-09T13:41:28;10.60;99.90
16881;DHT22;8557;52.068;5.198;2023-01-09T13:44:26;10.50;99.90
16881;DHT22;8557;52.068;5.198;2023-01-09T13:46:55;10.50;99.90
16881;DHT22;8557;52.068;5.198;2023-01-09T13:49:58;10.60;99.90
16881;DHT22;8557;52.068;5.198;2023-01-09T13:52:31;10.70;99.90
16881;DHT22;8557;52.068;5.198;2023-01-09T13:55:01;10.60;99.90
16881;DHT22;8557;52.068;5.198;2023-01-09T13:57:31;10.70;99.90
16881;DHT22;8557;52.068;5.198;2023-01-09T14:03:18;10.30;99.90
16881;DHT22;8557;52.068;5.198;2023-01-09T14:06:16;9.80;99.90
16881;DHT22;8557;52.068;5.198;2023-01-09T14:08:45;9.50;99.90
16881;DHT22;8557;52.068;5.198;2023-01-09T14:11:22;9.30;99.90
16881;DHT22;8557;52.068;5.198;2023-01-09T14:14:05;9.20;99.90
16881;DHT22;8557;52.068;5.198;2023-01-09T14:16:34;9.40;99.90
16881;DHT22;8557;52.068;5.198;2023-01-09T14:19:15;9.50;99.90
16881;DHT22;8557;52.068;5.198;2023-01-09T14:21:47;9.40;99.90
16881;DHT22;8557;52.068;5.198;2023-01-09T14:24:23;9.30;99.90
16881;DHT22;8557;52.068;5.198;2023-01-09T14:26:51;9.50;99.90
16881;DHT22;8557;52.068;5.198;2023-01-09T14:29:43;9.60;99.90
16881;DHT22;8557;52.068;5.198;2023-01-09T14:32:46;9.70;99.90
16881;DHT22;8557;52.068;5.198;2023-01-09T14:35:26;9.80;99.90
16881;DHT22;8557;52.068;5.198;2023-01-09T14:38:25;9.70;99.90
16881;DHT22;8557;52.068;5.198;2023-01-09T14:40:57;9.80;99.90
16881;DHT22;8557;52.068;5.198;2023-01-09T14:43:32;9.90;99.90
16881;DHT22;8557;52.068;5.198;2023-01-09T14:46:10;10.00;99.90
16881;DHT22;8557;52.068;5.198;2023-01-09T14:48:44;9.80;99.90
16881;DHT22;8557;52.068;5.198;2023-01-09T14:51:17;9.70;99.90
16881;DHT22;8557;52.068;5.198;2023-01-09T14:53:46;9.60;99.90
16881;DHT22;8557;52.068;5.198;2023-01-09T14:56:26;9.50;99.90
16881;DHT22;8557;52.068;5.198;2023-01-09T14:59:03;9.40;99.90
16881;DHT22;8557;52.068;5.198;2023-01-09T15:01:32;9.20;99.90
16881;DHT22;8557;52.068;5.198;2023-01-09T15:04:04;8.90;99.90
16881;DHT22;8557;52.068;5.198;2023-01-09T15:13:57;8.70;99.90
16881;DHT22;8557;52.068;5.198;2023-01-09T15:16:25;8.70;99.90
16881;DHT22;8557;52.068;5.198;2023-01-09T15:18:56;8.60;99.90
16881;DHT22;8557;52.068;5.198;2023-01-09T15:21:28;8.60;99.90
16881;DHT22;8557;52.068;5.198;2023-01-09T15:24:10;8.50;99.90
16881;DHT22;8557;52.068;5.198;2023-01-09T15:29:13;8.30;99.90
16881;DHT22;8557;52.068;5.198;2023-01-09T15:31:43;8.30;99.90
16881;DHT22;8557;52.068;5.198;2023-01-09T15:34:16;8.00;99.90
16881;DHT22;8557;52.068;5.198;2023-01-09T15:36:45;8.10;99.90
16881;DHT22;8557;52.068;5.198;2023-01-09T15:39:17;8.10;99.90
16881;DHT22;8557;52.068;5.198;2023-01-09T15:41:45;8.00;99.90
16881;DHT22;8557;52.068;5.198;2023-01-09T15:44:30;7.90;99.90
16881;DHT22;8557;52.068;5.198;2023-01-09T15:47:02;7.80;99.90
16881;DHT22;8557;52.068;5.198;2023-01-09T15:49:31;7.70;99.90
16881;DHT22;8557;52.068;5.198;2023-01-09T15:52:00;7.60;99.90
16881;DHT22;8557;52.068;5.198;2023-01-09T15:54:28;7.60;99.90
16881;DHT22;8557;52.068;5.198;2023-01-09T15:57:26;7.60;99.90
16881;DHT22;8557;52.068;5.198;2023-01-09T15:59:56;7.50;99.90
16881;DHT22;8557;52.068;5.198;2023-01-09T16:02:24;7.40;99.90
16881;DHT22;8557;52.068;5.198;2023-01-09T16:05:12;7.30;99.90
16881;DHT22;8557;52.068;5.198;2023-01-09T16:07:45;7.10;99.90
16881;DHT22;8557;52.068;5.198;2023-01-09T16:10:21;7.00;99.90
16881;DHT22;8557;52.068;5.198;2023-01-09T16:12:48;7.00;99.90
16881;DHT22;8557;52.068;5.198;2023-01-09T16:15:18;6.90;99.90
16881;DHT22;8557;52.068;5.198;2023-01-09T16:18:03;6.80;99.90
16881;DHT22;8557;52.068;5.198;2023-01-09T16:20:30;6.80;99.90
16881;DHT22;8557;52.068;5.198;2023-01-09T16:22:58;6.90;99.90
16881;DHT22;8557;52.068;5.198;2023-01-09T16:25:28;7.00;99.90
16881;DHT22;8557;52.068;5.198;2023-01-09T16:28:08;7.10;99.90
16881;DHT22;8557;52.068;5.198;2023-01-09T16:30:34;7.20;99.90
16881;DHT22;8557;52.068;5.198;2023-01-09T16:33:04;7.30;99.90
16881;DHT22;8557;52.068;5.198;2023-01-09T16:35:30;7.40;99.90
16881;DHT22;8557;52.068;5.198;2023-01-09T16:37:59;7.40;99.90
16881;DHT22;8557;52.068;5.198;2023-01-09T16:40:26;7.40;99.90
16881;DHT22;8557;52.068;5.198;2023-01-09T16:42:56;7.50;99.90
16881;DHT22;8557;52.068;5.198;2023-01-09T16:45:27;7.60;99.90
16881;DHT22;8557;52.068;5.198;2023-01-09T16:47:55;7.60;99.90
16881;DHT22;8557;52.068;5.198;2023-01-09T16:50:23;7.70;99.90
16881;DHT22;8557;52.068;5.198;2023-01-09T16:52:50;7.90;99.90
16881;DHT22;8557;52.068;5.198;2023-01-09T16:55:19;7.80;99.90
16881;DHT22;8557;52.068;5.198;2023-01-09T16:57:46;7.90;99.90